Time;durP1;ratioP1;P1;durP2;ratioP2;P2;SDS_P1;SDS_P2;PMS_P1;PMS_P2;Temp;Humidity;BMP_temperature;BMP_pressure;BME280_temperature;BME280_humidity;BME280_pressure;Samples;Min_cycle;Max_cycle;Signal;HPM_P1;HPM_P2
2023/05/01 00:02:20;;;;;;;25.10;19.40;;;;;;;;;;5076318;28;20493;-63
2023/05/01 00:04:47;;;;;;;21.00;18.70;;;;;;;;;;5076058;28;20427;-63
2023/05/01 00:07:14;;;;;;;25.07;19.40;;;;;;;;;;5076113;28;20429;-62
2023/05/01 00:09:41;;;;;;;27.77;20.43;;;;;;;;;;5076238;28;20535;-63
2023/05/01 00:12:07;;;;;;;23.73;18.47;;;;;;;;;;5076103;28;20477;-62
2023/05/01 00:14:36;;;;;;;25.40;19.07;;;;;;;;;;5076032;28;20540;-62
2023/05/01 00:17:03;;;;;;;23.43;18.67;;;;;;;;;;5076170;28;20448;-63
2023/05/01 00:19:30;;;;;;;23.03;18.50;;;;;;;;;;5075781;28;20484;-62
2023/05/01 00:21:57;;;;;;;22.13;19.90;;;;;;;;;;5075698;28;20483;-62
2023/05/01 00:24:24;;;;;;;23.17;19.67;;;;;;;;;;5075937;28;20819;-62
2023/05/01 00:26:50;;;;;;;24.00;19.20;;;;;;;;;;5075879;28;20447;-62
2023/05/01 00:29:17;;;;;;;22.80;18.93;;;;;;;;;;5076051;28;20963;-63
2023/05/01 00:31:46;;;;;;;25.17;18.37;;;;;;;;;;5075690;28;20596;-63
2023/05/01 00:34:13;;;;;;;24.83;20.60;;;;;;;;;;5075589;28;20816;-62
2023/05/01 00:36:40;;;;;;;24.00;19.30;;;;;;;;;;5075764;28;20455;-62
2023/05/01 00:39:07;;;;;;;23.38;20.33;;;;;;;;;;5075572;28;21069;-63
2023/05/01 00:41:34;;;;;;;26.10;20.27;;;;;;;;;;5075567;28;20205;-62
2023/05/01 00:44:01;;;;;;;21.17;18.83;;;;;;;;;;5075493;28;20522;-63
2023/05/01 00:46:29;;;;;;;25.60;19.70;;;;;;;;;;5075457;28;20665;-62
2023/05/01 00:48:58;;;;;;;24.35;19.90;;;;;;;;;;5075398;28;20196;-63
2023/05/01 00:51:27;;;;;;;24.30;19.75;;;;;;;;;;5075486;28;20284;-62
2023/05/01 00:53:54;;;;;;;26.88;20.38;;;;;;;;;;5075413;28;20194;-63
2023/05/01 00:56:21;;;;;;;26.17;21.83;;;;;;;;;;5075065;28;20218;-63
2023/05/01 00:58:50;;;;;;;21.95;18.55;;;;;;;;;;5074156;28;20210;-62
2023/05/01 01:01:17;;;;;;;23.63;20.83;;;;;;;;;;5075049;28;20196;-63
2023/05/01 01:03:44;;;;;;;22.83;18.93;;;;;;;;;;5074985;28;20450;-63
2023/05/01 01:06:15;;;;;;;20.30;18.10;;;;;;;;;;5075268;28;20423;-62
2023/05/01 01:08:44;;;;;;;23.70;18.63;;;;;;;;;;5075121;28;20286;-62
2023/05/01 01:11:15;;;;;;;21.17;18.47;;;;;;;;;;5075231;28;20878;-62
2023/05/01 01:13:46;;;;;;;20.80;18.57;;;;;;;;;;5074914;28;20458;-63
2023/05/01 01:16:17;;;;;;;26.27;18.70;;;;;;;;;;5074864;28;20550;-62
2023/05/01 01:18:49;;;;;;;29.92;20.77;;;;;;;;;;5074881;28;20209;-63
2023/05/01 01:21:20;;;;;;;23.00;18.40;;;;;;;;;;5074842;28;20194;-62
2023/05/01 01:23:59;;;;;;;24.38;20.08;;;;;;;;;;5074789;28;20186;-63
2023/05/01 01:26:39;;;;;;;27.27;20.05;;;;;;;;;;5074541;28;20641;-62
2023/05/01 01:29:21;;;;;;;22.93;19.00;;;;;;;;;;5074807;28;20607;-62
2023/05/01 01:31:53;;;;;;;22.60;17.98;;;;;;;;;;5074663;28;20560;-62
2023/05/01 01:34:26;;;;;;;22.02;18.83;;;;;;;;;;5074701;28;20189;-62
2023/05/01 01:36:56;;;;;;;19.67;17.15;;;;;;;;;;5074432;28;20190;-62
2023/05/01 01:39:27;;;;;;;23.92;18.05;;;;;;;;;;5074460;28;20222;-62
2023/05/01 01:41:55;;;;;;;21.27;16.08;;;;;;;;;;5074561;28;20395;-62
2023/05/01 01:44:26;;;;;;;19.83;17.73;;;;;;;;;;5074281;28;20190;-62
2023/05/01 01:46:54;;;;;;;20.88;15.77;;;;;;;;;;5074408;28;20194;-63
2023/05/01 01:49:24;;;;;;;19.65;16.60;;;;;;;;;;5074171;28;20200;-62
2023/05/01 01:51:52;;;;;;;16.60;14.70;;;;;;;;;;5074549;28;20221;-63
2023/05/01 01:54:20;;;;;;;17.80;15.13;;;;;;;;;;5074272;28;20427;-62
2023/05/01 01:56:49;;;;;;;20.33;15.73;;;;;;;;;;5074131;28;20636;-62
2023/05/01 01:59:16;;;;;;;17.50;15.10;;;;;;;;;;5073976;28;20594;-62
2023/05/01 02:01:44;;;;;;;18.20;15.60;;;;;;;;;;5073991;28;20418;-62
2023/05/01 02:04:11;;;;;;;17.43;13.70;;;;;;;;;;5074300;28;20447;-63
2023/05/01 02:06:40;;;;;;;15.23;12.60;;;;;;;;;;5074011;28;20450;-63
2023/05/01 02:09:09;;;;;;;17.87;13.83;;;;;;;;;;5073781;28;20454;-62
2023/05/01 02:11:37;;;;;;;16.37;13.20;;;;;;;;;;5074051;28;20448;-63
2023/05/01 02:14:04;;;;;;;14.40;13.00;;;;;;;;;;5073845;28;20431;-62
2023/05/01 02:16:32;;;;;;;18.00;13.33;;;;;;;;;;5073723;28;20780;-62
2023/05/01 02:19:00;;;;;;;24.07;16.63;;;;;;;;;;5074011;28;20575;-63
2023/05/01 02:21:29;;;;;;;20.17;14.80;;;;;;;;;;5073563;28;20978;-63
2023/05/01 02:24:00;;;;;;;14.63;13.10;;;;;;;;;;5073427;28;20456;-63
2023/05/01 02:26:27;;;;;;;16.70;13.27;;;;;;;;;;5073518;28;20448;-62
2023/05/01 02:28:54;;;;;;;22.53;12.33;;;;;;;;;;5073412;28;20548;-62
2023/05/01 02:31:21;;;;;;;13.23;11.33;;;;;;;;;;5073648;28;20444;-62
2023/05/01 02:33:48;;;;;;;14.07;11.57;;;;;;;;;;5073576;28;20530;-62
2023/05/01 02:36:15;;;;;;;12.73;11.48;;;;;;;;;;5073615;28;20534;-62
2023/05/01 02:38:42;;;;;;;14.93;11.65;;;;;;;;;;5073323;28;20285;-62
2023/05/01 02:41:11;;;;;;;13.18;11.57;;;;;;;;;;5073332;28;20225;-62
2023/05/01 02:43:39;;;;;;;11.95;10.73;;;;;;;;;;5073185;28;20232;-63
2023/05/01 02:46:09;;;;;;;14.65;10.48;;;;;;;;;;5073353;28;20576;-62
2023/05/01 02:48:37;;;;;;;12.90;9.97;;;;;;;;;;5073302;28;20565;-62
2023/05/01 02:51:04;;;;;;;12.35;10.68;;;;;;;;;;5073204;28;20808;-63
2023/05/01 02:53:33;;;;;;;12.10;10.07;;;;;;;;;;5073357;28;20201;-62
2023/05/01 02:56:00;;;;;;;12.57;10.57;;;;;;;;;;5072798;28;20268;-62
2023/05/01 02:58:31;;;;;;;10.97;8.73;;;;;;;;;;5073265;28;20539;-62
2023/05/01 03:00:58;;;;;;;11.43;9.70;;;;;;;;;;5073151;28;20823;-62
2023/05/01 03:03:26;;;;;;;10.73;9.20;;;;;;;;;;5072921;28;20736;-62
2023/05/01 03:05:53;;;;;;;10.70;9.60;;;;;;;;;;5073005;28;20459;-62
2023/05/01 03:08:21;;;;;;;10.37;8.43;;;;;;;;;;5072925;28;20190;-62
2023/05/01 03:10:48;;;;;;;10.57;8.45;;;;;;;;;;5073145;28;20448;-63
2023/05/01 03:13:15;;;;;;;11.23;8.13;;;;;;;;;;5073168;28;20200;-62
2023/05/01 03:15:44;;;;;;;12.13;7.73;;;;;;;;;;5073009;28;20430;-62
2023/05/01 03:18:11;;;;;;;11.87;8.27;;;;;;;;;;5072970;28;20422;-62
2023/05/01 03:20:38;;;;;;;8.20;7.30;;;;;;;;;;5072503;28;20483;-62
2023/05/01 03:23:06;;;;;;;10.55;8.02;;;;;;;;;;5072418;28;20452;-62
2023/05/01 03:25:33;;;;;;;8.07;7.27;;;;;;;;;;5073039;28;20193;-62
2023/05/01 03:28:00;;;;;;;9.10;7.10;;;;;;;;;;5073063;28;20538;-62
2023/05/01 03:30:27;;;;;;;10.15;7.30;;;;;;;;;;5072908;28;20193;-62
2023/05/01 03:32:55;;;;;;;9.97;7.37;;;;;;;;;;5072777;28;20273;-62
2023/05/01 03:35:22;;;;;;;9.73;7.50;;;;;;;;;;5072750;28;20539;-62
2023/05/01 03:37:49;;;;;;;10.77;7.40;;;;;;;;;;5072452;28;20190;-63
2023/05/01 03:40:17;;;;;;;11.00;8.97;;;;;;;;;;5072324;28;20850;-63
2023/05/01 03:42:44;;;;;;;12.63;7.20;;;;;;;;;;5072381;28;20452;-62
2023/05/01 03:45:11;;;;;;;11.10;7.67;;;;;;;;;;5072271;28;20429;-63
2023/05/01 03:47:38;;;;;;;9.07;7.47;;;;;;;;;;5072247;28;20447;-63
2023/05/01 03:50:08;;;;;;;9.30;7.53;;;;;;;;;;5072026;28;20430;-62
2023/05/01 03:52:35;;;;;;;12.65;8.25;;;;;;;;;;5072300;28;20443;-63
2023/05/01 03:55:02;;;;;;;10.53;8.20;;;;;;;;;;5072152;28;20217;-62
2023/05/01 03:57:29;;;;;;;8.37;7.00;;;;;;;;;;5072194;28;20619;-63
2023/05/01 03:59:56;;;;;;;10.13;7.00;;;;;;;;;;5072143;28;20569;-62
2023/05/01 04:02:23;;;;;;;11.30;8.53;;;;;;;;;;5072060;28;20194;-63
2023/05/01 04:04:50;;;;;;;10.23;7.17;;;;;;;;;;5072052;28;20475;-63
2023/05/01 04:07:18;;;;;;;7.30;6.30;;;;;;;;;;5072246;28;20969;-62
2023/05/01 04:09:47;;;;;;;12.40;7.60;;;;;;;;;;5072092;28;20546;-62
2023/05/01 04:12:14;;;;;;;9.77;7.50;;;;;;;;;;5072401;28;20514;-62
2023/05/01 04:14:42;;;;;;;10.37;7.77;;;;;;;;;;5071960;28;20448;-63
2023/05/01 04:17:09;;;;;;;11.60;6.20;;;;;;;;;;5071818;28;20448;-62
2023/05/01 04:19:36;;;;;;;11.67;7.37;;;;;;;;;;5072022;28;20475;-63
2023/05/01 04:22:04;;;;;;;8.33;6.30;;;;;;;;;;5072319;28;20448;-63
2023/05/01 04:24:32;;;;;;;10.60;6.00;;;;;;;;;;5071978;28;20812;-63
2023/05/01 04:26:59;;;;;;;6.27;5.40;;;;;;;;;;5071730;28;20947;-63
2023/05/01 04:29:26;;;;;;;8.27;6.30;;;;;;;;;;5071842;28;20542;-62
2023/05/01 04:31:53;;;;;;;6.70;6.00;;;;;;;;;;5071760;28;20479;-62
2023/05/01 04:34:20;;;;;;;9.60;6.70;;;;;;;;;;5074057;28;20576;-62
2023/05/01 04:36:47;;;;;;;6.55;5.93;;;;;;;;;;5075517;28;20546;-63
2023/05/01 04:39:15;;;;;;;7.00;5.53;;;;;;;;;;5075221;28;20251;-62
2023/05/01 04:41:43;;;;;;;10.10;6.53;;;;;;;;;;5075344;28;20502;-62
2023/05/01 04:44:10;;;;;;;8.43;6.37;;;;;;;;;;5075184;28;20426;-62
2023/05/01 04:46:37;;;;;;;7.20;5.33;;;;;;;;;;5075131;28;20539;-63
2023/05/01 04:49:04;;;;;;;11.77;6.00;;;;;;;;;;5075300;28;20881;-61
2023/05/01 04:51:31;;;;;;;9.90;5.80;;;;;;;;;;5075187;28;20582;-63
2023/05/01 04:53:58;;;;;;;7.90;5.20;;;;;;;;;;5074972;28;20918;-65
2023/05/01 04:56:25;;;;;;;6.67;5.50;;;;;;;;;;5075092;28;20308;-63
2023/05/01 04:58:53;;;;;;;6.35;5.43;;;;;;;;;;5074889;28;20448;-62
2023/05/01 05:01:20;;;;;;;6.80;5.55;;;;;;;;;;5075023;28;20568;-63
2023/05/01 05:03:47;;;;;;;8.65;5.60;;;;;;;;;;5074919;28;20264;-62
2023/05/01 05:06:14;;;;;;;10.18;5.70;;;;;;;;;;5074929;28;20576;-62
2023/05/01 05:08:41;;;;;;;8.00;5.63;;;;;;;;;;5074770;28;20712;-62
2023/05/01 05:11:08;;;;;;;7.50;5.88;;;;;;;;;;5074726;28;20198;-62
2023/05/01 05:13:35;;;;;;;7.13;5.28;;;;;;;;;;5074582;28;20552;-63
2023/05/01 05:16:04;;;;;;;8.53;4.97;;;;;;;;;;5074734;28;20185;-63
2023/05/01 05:18:31;;;;;;;7.07;4.70;;;;;;;;;;5074699;28;20483;-62
2023/05/01 05:20:58;;;;;;;5.80;5.00;;;;;;;;;;5074475;28;20544;-63
2023/05/01 05:23:25;;;;;;;6.95;4.40;;;;;;;;;;5074524;28;20452;-63
2023/05/01 05:25:52;;;;;;;6.80;4.13;;;;;;;;;;5074392;28;20196;-61
2023/05/01 05:28:19;;;;;;;7.70;5.60;;;;;;;;;;5074330;28;20961;-63
2023/05/01 05:30:46;;;;;;;5.07;4.57;;;;;;;;;;5074546;28;20603;-62
2023/05/01 05:33:14;;;;;;;6.80;4.80;;;;;;;;;;5074517;28;20452;-62
2023/05/01 05:35:42;;;;;;;6.43;4.63;;;;;;;;;;5074188;28;20196;-63
2023/05/01 05:38:09;;;;;;;7.47;4.20;;;;;;;;;;5074249;28;20438;-62
2023/05/01 05:40:36;;;;;;;5.30;4.27;;;;;;;;;;5073999;28;20542;-62
2023/05/01 05:43:03;;;;;;;5.23;3.97;;;;;;;;;;5074062;28;20475;-63
2023/05/01 05:45:33;;;;;;;6.10;4.47;;;;;;;;;;5073471;28;20609;-63
2023/05/01 05:48:00;;;;;;;9.00;4.30;;;;;;;;;;5073890;28;20870;-63
2023/05/01 05:50:29;;;;;;;7.93;4.23;;;;;;;;;;5073833;28;20882;-63
2023/05/01 05:52:56;;;;;;;6.73;4.20;;;;;;;;;;5073646;28;20451;-63
2023/05/01 05:55:23;;;;;;;5.90;4.53;;;;;;;;;;5073501;28;20472;-63
2023/05/01 05:57:50;;;;;;;6.83;4.33;;;;;;;;;;5073643;28;20968;-62
2023/05/01 06:00:17;;;;;;;7.70;4.30;;;;;;;;;;5073853;28;20475;-62
2023/05/01 06:02:44;;;;;;;5.77;4.03;;;;;;;;;;5073640;28;20447;-62
2023/05/01 06:05:12;;;;;;;4.70;4.20;;;;;;;;;;5073388;28;20921;-63
2023/05/01 06:07:40;;;;;;;6.63;4.70;;;;;;;;;;5073353;28;20461;-63
2023/05/01 06:10:07;;;;;;;7.07;4.47;;;;;;;;;;5073251;28;20427;-63
2023/05/01 06:12:34;;;;;;;4.70;4.20;;;;;;;;;;5073278;28;20446;-62
2023/05/01 06:15:02;;;;;;;8.30;4.53;;;;;;;;;;5073539;28;20418;-63
2023/05/01 06:17:28;;;;;;;6.50;4.33;;;;;;;;;;5073197;28;20505;-63
2023/05/01 06:19:55;;;;;;;5.03;4.43;;;;;;;;;;5073240;28;20523;-63
2023/05/01 06:22:23;;;;;;;5.57;3.80;;;;;;;;;;5073127;28;20452;-63
2023/05/01 06:24:51;;;;;;;4.10;3.70;;;;;;;;;;5073274;28;20807;-63
2023/05/01 06:27:18;;;;;;;6.33;4.53;;;;;;;;;;5073476;28;20525;-63
2023/05/01 06:29:45;;;;;;;4.97;3.77;;;;;;;;;;5073026;28;20448;-63
2023/05/01 06:32:12;;;;;;;4.47;3.50;;;;;;;;;;5072965;28;20710;-62
2023/05/01 06:34:39;;;;;;;6.77;3.80;;;;;;;;;;5072791;28;20451;-62
2023/05/01 06:37:06;;;;;;;4.83;3.73;;;;;;;;;;5072822;28;20448;-62
2023/05/01 06:39:33;;;;;;;5.70;3.40;;;;;;;;;;5072985;28;20456;-63
2023/05/01 06:42:02;;;;;;;5.87;3.80;;;;;;;;;;5072743;28;20480;-63
2023/05/01 06:44:29;;;;;;;4.37;3.43;;;;;;;;;;5072883;28;20452;-62
2023/05/01 06:46:57;;;;;;;3.97;3.60;;;;;;;;;;5072814;28;20546;-63
2023/05/01 06:49:24;;;;;;;4.10;3.70;;;;;;;;;;5072997;28;20547;-63
2023/05/01 06:51:51;;;;;;;6.50;3.67;;;;;;;;;;5072856;28;20452;-63
2023/05/01 06:54:18;;;;;;;5.23;3.93;;;;;;;;;;5072765;28;20559;-63
2023/05/01 06:56:45;;;;;;;5.40;3.97;;;;;;;;;;5071833;28;20478;-63
2023/05/01 06:59:13;;;;;;;5.50;3.33;;;;;;;;;;5072610;28;20534;-63
2023/05/01 07:01:40;;;;;;;7.33;3.77;;;;;;;;;;5072520;28;20486;-63
2023/05/01 07:04:07;;;;;;;7.87;3.23;;;;;;;;;;5072490;28;20451;-63
2023/05/01 07:06:34;;;;;;;3.70;3.37;;;;;;;;;;5072800;28;20448;-63
2023/05/01 07:09:01;;;;;;;5.63;3.63;;;;;;;;;;5072711;28;20484;-63
2023/05/01 07:11:28;;;;;;;4.40;3.57;;;;;;;;;;5072470;28;20451;-63
2023/05/01 07:13:55;;;;;;;7.30;4.07;;;;;;;;;;5072576;28;20529;-63
2023/05/01 07:16:23;;;;;;;4.97;3.87;;;;;;;;;;5072420;28;20967;-63
2023/05/01 07:18:50;;;;;;;4.33;3.60;;;;;;;;;;5072667;28;20546;-62
2023/05/01 07:21:17;;;;;;;5.93;4.03;;;;;;;;;;5072509;28;20483;-63
2023/05/01 07:23:45;;;;;;;4.40;3.63;;;;;;;;;;5072413;28;20948;-63
2023/05/01 07:26:12;;;;;;;7.70;3.80;;;;;;;;;;5072434;28;20459;-63
2023/05/01 07:28:40;;;;;;;4.40;3.00;;;;;;;;;;5072472;28;20454;-63
2023/05/01 07:31:07;;;;;;;8.53;3.60;;;;;;;;;;5072147;28;20593;-63
2023/05/01 07:33:35;;;;;;;7.50;3.30;;;;;;;;;;5072485;28;20450;-63
2023/05/01 07:36:03;;;;;;;4.90;3.30;;;;;;;;;;5072540;28;20444;-63
2023/05/01 07:38:30;;;;;;;4.63;2.87;;;;;;;;;;5072392;28;20814;-61
2023/05/01 07:40:57;;;;;;;4.87;3.00;;;;;;;;;;5072201;28;20835;-61
2023/05/01 07:43:24;;;;;;;5.27;2.67;;;;;;;;;;5072212;28;20452;-63
2023/05/01 07:45:57;;;;;;;3.63;3.17;;;;;;;;;;5072347;28;20448;-63
2023/05/01 07:48:25;;;;;;;7.80;3.47;;;;;;;;;;5072312;28;20498;-63
2023/05/01 07:50:53;;;;;;;4.73;2.83;;;;;;;;;;5072319;28;20449;-63
2023/05/01 07:53:21;;;;;;;5.17;3.60;;;;;;;;;;5072166;28;20897;-63
2023/05/01 07:55:48;;;;;;;7.37;3.50;;;;;;;;;;5071890;28;20975;-63
2023/05/01 07:58:16;;;;;;;3.20;2.90;;;;;;;;;;5072095;28;20502;-63
2023/05/01 08:00:44;;;;;;;6.10;3.23;;;;;;;;;;5072161;28;20844;-63
2023/05/01 08:03:11;;;;;;;4.33;3.17;;;;;;;;;;5072139;28;20966;-63
2023/05/01 08:05:39;;;;;;;3.40;2.90;;;;;;;;;;5072198;28;20505;-63
2023/05/01 08:08:08;;;;;;;5.00;3.07;;;;;;;;;;5073837;28;20483;-63
2023/05/01 08:10:35;;;;;;;3.63;2.83;;;;;;;;;;5075656;28;20544;-63
2023/05/01 08:13:02;;;;;;;4.50;3.20;;;;;;;;;;5075956;28;20480;-63
2023/05/01 08:15:29;;;;;;;3.63;3.30;;;;;;;;;;5075766;28;20543;-63
2023/05/01 08:17:55;;;;;;;5.23;3.20;;;;;;;;;;5075888;28;20534;-63
2023/05/01 08:20:22;;;;;;;6.30;3.03;;;;;;;;;;5075372;28;20932;-63
2023/05/01 08:22:50;;;;;;;5.73;3.00;;;;;;;;;;5075556;28;20448;-63
2023/05/01 08:25:18;;;;;;;4.70;2.57;;;;;;;;;;5075843;28;20454;-63
2023/05/01 08:27:45;;;;;;;4.03;3.10;;;;;;;;;;5075782;28;20456;-64
2023/05/01 08:30:12;;;;;;;6.40;2.80;;;;;;;;;;5075785;28;20456;-63
2023/05/01 08:32:39;;;;;;;5.73;3.20;;;;;;;;;;5075575;28;20884;-63
2023/05/01 08:35:06;;;;;;;4.57;2.73;;;;;;;;;;5075265;28;20448;-63
2023/05/01 08:37:34;;;;;;;4.40;2.67;;;;;;;;;;5075542;28;20452;-63
2023/05/01 08:40:07;;;;;;;3.70;2.80;;;;;;;;;;5074979;28;20455;-63
2023/05/01 08:42:35;;;;;;;4.70;3.13;;;;;;;;;;5075370;28;20570;-63
2023/05/01 08:45:03;;;;;;;5.30;2.87;;;;;;;;;;5075273;28;20445;-63
2023/05/01 08:47:31;;;;;;;3.30;2.63;;;;;;;;;;5075172;28;20457;-63
2023/05/01 08:49:58;;;;;;;3.87;2.63;;;;;;;;;;5075193;28;20561;-63
2023/05/01 08:52:26;;;;;;;5.93;2.90;;;;;;;;;;5075056;28;20552;-63
2023/05/01 08:54:55;;;;;;;3.60;2.60;;;;;;;;;;5074929;28;20575;-63
2023/05/01 08:57:22;;;;;;;3.00;2.70;;;;;;;;;;5075147;28;20487;-63
2023/05/01 08:59:52;;;;;;;5.10;2.60;;;;;;;;;;5075048;28;20481;-63
2023/05/01 09:02:19;;;;;;;7.90;2.77;;;;;;;;;;5074731;28;20950;-63
2023/05/01 09:04:47;;;;;;;5.17;2.80;;;;;;;;;;5074727;28;20480;-64
2023/05/01 09:07:15;;;;;;;5.00;2.93;;;;;;;;;;5074809;28;20855;-63
2023/05/01 09:09:42;;;;;;;3.87;3.13;;;;;;;;;;5074661;28;20449;-63
2023/05/01 09:12:13;;;;;;;4.80;2.97;;;;;;;;;;5074742;28;20456;-64
2023/05/01 09:14:40;;;;;;;3.00;2.67;;;;;;;;;;5074584;28;20486;-64
2023/05/01 09:17:08;;;;;;;4.87;2.50;;;;;;;;;;5074536;28;20455;-64
2023/05/01 09:19:35;;;;;;;3.93;2.57;;;;;;;;;;5073660;28;20453;-64
2023/05/01 09:22:02;;;;;;;5.50;3.03;;;;;;;;;;5074532;28;20515;-64
2023/05/01 09:24:29;;;;;;;2.90;2.53;;;;;;;;;;5074514;28;20455;-64
2023/05/01 09:26:57;;;;;;;3.83;3.00;;;;;;;;;;5074650;28;20483;-64
2023/05/01 09:29:37;;;;;;;5.37;2.97;;;;;;;;;;5074351;28;20449;-64
2023/05/01 09:32:15;;;;;;;4.03;2.47;;;;;;;;;;5074245;28;20809;-63
2023/05/01 09:34:43;;;;;;;2.97;2.77;;;;;;;;;;5074409;28;20491;-63
2023/05/01 09:37:11;;;;;;;4.27;3.07;;;;;;;;;;5074262;28;20723;-64
2023/05/01 09:39:38;;;;;;;5.50;3.27;;;;;;;;;;5074223;28;20815;-64
2023/05/01 09:42:05;;;;;;;4.80;3.40;;;;;;;;;;5073941;28;20484;-63
2023/05/01 09:44:41;;;;;;;3.17;2.93;;;;;;;;;;5073980;28;20473;-64
2023/05/01 09:47:08;;;;;;;5.00;3.40;;;;;;;;;;5074120;28;20464;-64
2023/05/01 09:49:46;;;;;;;3.30;2.83;;;;;;;;;;5073884;28;20484;-64
2023/05/01 09:52:14;;;;;;;7.00;2.90;;;;;;;;;;5073714;28;20457;-64
2023/05/01 09:54:41;;;;;;;8.03;3.57;;;;;;;;;;5073567;28;20488;-64
2023/05/01 09:57:08;;;;;;;5.20;3.33;;;;;;;;;;5073907;28;20481;-64
2023/05/01 09:59:35;;;;;;;4.00;3.30;;;;;;;;;;5073879;28;20449;-63
2023/05/01 10:02:02;;;;;;;3.60;3.00;;;;;;;;;;5073636;28;20485;-64
2023/05/01 10:04:30;;;;;;;3.70;2.90;;;;;;;;;;5073593;28;20484;-64
2023/05/01 10:06:59;;;;;;;6.50;3.27;;;;;;;;;;5073533;28;20538;-64
2023/05/01 10:09:29;;;;;;;9.03;3.40;;;;;;;;;;5073352;28;20453;-64
2023/05/01 10:11:57;;;;;;;6.33;4.00;;;;;;;;;;5073834;28;20540;-64
2023/05/01 10:14:26;;;;;;;4.00;3.13;;;;;;;;;;5073522;28;20862;-64
2023/05/01 10:16:55;;;;;;;4.87;3.10;;;;;;;;;;5073302;28;20496;-64
2023/05/01 10:19:22;;;;;;;5.37;3.73;;;;;;;;;;5073215;28;20921;-64
2023/05/01 10:21:49;;;;;;;5.00;3.40;;;;;;;;;;5073055;28;20985;-64
2023/05/01 10:24:18;;;;;;;3.93;3.27;;;;;;;;;;5073454;28;20450;-64
2023/05/01 10:26:45;;;;;;;4.40;3.40;;;;;;;;;;5073299;28;20542;-64
2023/05/01 10:29:12;;;;;;;4.20;3.80;;;;;;;;;;5073022;28;20971;-64
2023/05/01 10:31:39;;;;;;;6.60;3.37;;;;;;;;;;5073062;28;20458;-64
2023/05/01 10:34:06;;;;;;;4.10;3.43;;;;;;;;;;5073096;28;20511;-64
2023/05/01 10:36:38;;;;;;;4.10;3.70;;;;;;;;;;5072919;28;20450;-64
2023/05/01 10:39:05;;;;;;;7.57;2.97;;;;;;;;;;5073297;28;20454;-64
2023/05/01 10:41:47;;;;;;;3.33;3.03;;;;;;;;;;5072925;28;20474;-64
2023/05/01 10:44:23;;;;;;;8.60;3.90;;;;;;;;;;5072778;28;20464;-64
2023/05/01 10:46:50;;;;;;;6.30;3.43;;;;;;;;;;5072628;28;20446;-62
2023/05/01 10:49:18;;;;;;;5.67;3.50;;;;;;;;;;5072892;28;20454;-62
2023/05/01 10:52:01;;;;;;;6.77;3.57;;;;;;;;;;5073275;28;20450;-62
2023/05/01 10:54:28;;;;;;;5.00;3.50;;;;;;;;;;5072758;28;20805;-62
2023/05/01 10:56:57;;;;;;;6.30;3.97;;;;;;;;;;5072655;28;20536;-62
2023/05/01 10:59:26;;;;;;;4.90;4.17;;;;;;;;;;5072443;28;20454;-62
2023/05/01 11:01:53;;;;;;;6.67;4.70;;;;;;;;;;5072652;28;20880;-64
2023/05/01 11:04:49;;;;;;;7.53;4.50;;;;;;;;;;5072459;28;20944;-63
2023/05/01 11:07:17;;;;;;;4.43;4.03;;;;;;;;;;5072604;28;20821;-62
2023/05/01 11:09:45;;;;;;;4.27;3.50;;;;;;;;;;5072686;28;20446;-64
2023/05/01 11:12:13;;;;;;;5.37;3.97;;;;;;;;;;5072655;28;20447;-64
2023/05/01 11:15:01;;;;;;;4.57;3.60;;;;;;;;;;5072647;28;20539;-63
2023/05/01 11:17:49;;;;;;;9.07;4.73;;;;;;;;;;5072462;28;20454;-62
2023/05/01 11:20:35;;;;;;;4.93;3.80;;;;;;;;;;5072259;28;21002;-64
2023/05/01 11:23:02;;;;;;;4.60;4.17;;;;;;;;;;5072645;28;20825;-63
2023/05/01 11:25:31;;;;;;;5.33;4.40;;;;;;;;;;5072755;28;20541;-63
2023/05/01 11:27:59;;;;;;;4.37;3.97;;;;;;;;;;5072559;28;20477;-63
2023/05/01 11:30:26;;;;;;;7.00;3.40;;;;;;;;;;5072422;28;20459;-62
2023/05/01 11:32:54;;;;;;;5.00;3.77;;;;;;;;;;5072291;28;20558;-63
2023/05/01 11:35:22;;;;;;;7.37;4.37;;;;;;;;;;5072462;28;20541;-63
2023/05/01 11:37:50;;;;;;;6.60;3.90;;;;;;;;;;5072156;28;20624;-63
2023/05/01 11:40:21;;;;;;;7.70;4.20;;;;;;;;;;5072143;28;20527;-63
2023/05/01 11:42:48;;;;;;;4.80;4.00;;;;;;;;;;5073355;28;20482;-63
2023/05/01 11:45:15;;;;;;;6.33;4.63;;;;;;;;;;5076145;28;20460;-63
2023/05/01 11:47:42;;;;;;;5.47;3.63;;;;;;;;;;5076532;28;20476;-63
2023/05/01 11:50:11;;;;;;;3.90;3.60;;;;;;;;;;5076556;28;20446;-63
2023/05/01 11:52:45;;;;;;;4.40;3.50;;;;;;;;;;5076555;28;20504;-63
2023/05/01 11:55:12;;;;;;;5.47;3.70;;;;;;;;;;5076044;28;20474;-64
2023/05/01 11:57:46;;;;;;;4.80;3.43;;;;;;;;;;5076075;28;20547;-63
2023/05/01 12:00:14;;;;;;;5.00;4.03;;;;;;;;;;5076307;28;20458;-63
2023/05/01 12:02:40;;;;;;;5.23;3.70;;;;;;;;;;5075987;28;20478;-63
2023/05/01 12:05:18;;;;;;;4.90;3.27;;;;;;;;;;5076321;28;20458;-63
2023/05/01 12:07:45;;;;;;;7.00;3.50;;;;;;;;;;5076056;28;20446;-63
2023/05/01 12:10:12;;;;;;;5.73;3.40;;;;;;;;;;5076056;28;20478;-64
2023/05/01 12:12:40;;;;;;;4.50;4.20;;;;;;;;;;5076320;28;20445;-64
2023/05/01 12:15:07;;;;;;;8.83;5.27;;;;;;;;;;5076067;28;20493;-63
2023/05/01 12:17:35;;;;;;;9.00;4.90;;;;;;;;;;5076004;28;20468;-63
2023/05/01 12:20:03;;;;;;;6.27;3.70;;;;;;;;;;5076188;28;20446;-63
2023/05/01 12:22:31;;;;;;;3.23;3.00;;;;;;;;;;5075992;28;20476;-63
2023/05/01 12:24:59;;;;;;;4.27;3.70;;;;;;;;;;5075869;28;20476;-63
2023/05/01 12:27:26;;;;;;;3.30;3.00;;;;;;;;;;5075831;28;20501;-63
2023/05/01 12:29:53;;;;;;;4.00;3.60;;;;;;;;;;5075552;28;20960;-63
2023/05/01 12:32:29;;;;;;;10.97;4.03;;;;;;;;;;5075560;28;20896;-64
2023/05/01 12:34:56;;;;;;;5.07;4.00;;;;;;;;;;5075700;28;20446;-64
2023/05/01 12:37:23;;;;;;;4.20;3.20;;;;;;;;;;5075471;28;20813;-64
2023/05/01 12:39:51;;;;;;;5.50;3.90;;;;;;;;;;5075691;28;20450;-64
2023/05/01 12:42:18;;;;;;;5.27;3.83;;;;;;;;;;5075534;28;20479;-64
2023/05/01 12:44:46;;;;;;;3.67;3.37;;;;;;;;;;5075401;28;20455;-64
2023/05/01 12:47:13;;;;;;;7.03;3.80;;;;;;;;;;5075235;28;20501;-63
2023/05/01 12:49:40;;;;;;;3.57;3.27;;;;;;;;;;5075205;28;20452;-64
2023/05/01 12:52:08;;;;;;;5.87;3.13;;;;;;;;;;5075470;28;20857;-63
2023/05/01 12:54:37;;;;;;;4.10;3.10;;;;;;;;;;5073877;28;20462;-64
2023/05/01 12:57:09;;;;;;;5.77;3.93;;;;;;;;;;5075260;28;20460;-63
2023/05/01 12:59:36;;;;;;;5.30;3.93;;;;;;;;;;5075090;28;20861;-63
2023/05/01 13:02:04;;;;;;;6.40;3.67;;;;;;;;;;5074788;28;20953;-63
2023/05/01 13:04:31;;;;;;;4.33;3.50;;;;;;;;;;5074975;28;20458;-63
2023/05/01 13:06:58;;;;;;;5.40;3.10;;;;;;;;;;5075167;28;20538;-64
2023/05/01 13:09:26;;;;;;;3.40;3.10;;;;;;;;;;5074914;28;20454;-63
2023/05/01 13:11:57;;;;;;;7.53;3.30;;;;;;;;;;5074944;28;20455;-63
2023/05/01 13:14:26;;;;;;;4.60;2.90;;;;;;;;;;5075041;28;20457;-64
2023/05/01 13:16:53;;;;;;;4.70;3.70;;;;;;;;;;5074933;28;20539;-63
2023/05/01 13:19:27;;;;;;;3.57;3.27;;;;;;;;;;5074985;28;20517;-64
2023/05/01 13:21:54;;;;;;;3.97;3.57;;;;;;;;;;5074686;28;20446;-63
2023/05/01 13:24:22;;;;;;;7.50;3.37;;;;;;;;;;5074683;28;20448;-64
2023/05/01 13:26:49;;;;;;;4.33;3.60;;;;;;;;;;5074503;28;20480;-63
2023/05/01 13:29:16;;;;;;;3.70;3.40;;;;;;;;;;5074571;28;20477;-63
2023/05/01 13:31:45;;;;;;;3.00;2.70;;;;;;;;;;5074685;28;20912;-63
2023/05/01 13:34:16;;;;;;;5.80;3.50;;;;;;;;;;5074667;28;20451;-64
2023/05/01 13:36:43;;;;;;;4.73;4.00;;;;;;;;;;5074561;28;20458;-64
2023/05/01 13:39:10;;;;;;;9.37;2.93;;;;;;;;;;5074475;28;20543;-64
2023/05/01 13:41:40;;;;;;;7.83;3.10;;;;;;;;;;5074384;28;20448;-64
2023/05/01 13:44:07;;;;;;;5.77;3.27;;;;;;;;;;5074186;28;20892;-64
2023/05/01 13:46:34;;;;;;;3.27;2.97;;;;;;;;;;5074547;28;20443;-63
2023/05/01 13:49:05;;;;;;;5.23;3.67;;;;;;;;;;5074148;28;21005;-64
2023/05/01 13:51:35;;;;;;;7.10;4.90;;;;;;;;;;5074194;28;20535;-64
2023/05/01 13:54:03;;;;;;;3.90;3.50;;;;;;;;;;5074232;28;20500;-64
2023/05/01 13:56:31;;;;;;;5.90;3.70;;;;;;;;;;5073793;28;20512;-64
2023/05/01 13:58:59;;;;;;;4.30;3.50;;;;;;;;;;5074258;28;20931;-63
2023/05/01 14:01:26;;;;;;;8.50;3.37;;;;;;;;;;5074389;28;20443;-64
2023/05/01 14:03:55;;;;;;;4.90;3.50;;;;;;;;;;5073778;28;21084;-64
2023/05/01 14:06:24;;;;;;;7.10;3.37;;;;;;;;;;5073433;28;20483;-63
2023/05/01 14:08:53;;;;;;;5.87;3.43;;;;;;;;;;5073663;28;20494;-64
2023/05/01 14:11:19;;;;;;;5.10;3.43;;;;;;;;;;5073912;28;20803;-64
2023/05/01 14:13:48;;;;;;;3.60;3.17;;;;;;;;;;5073764;28;20525;-64
2023/05/01 14:16:21;;;;;;;3.83;3.33;;;;;;;;;;5073869;28;20531;-64
2023/05/01 14:18:49;;;;;;;3.70;3.10;;;;;;;;;;5073757;28;20451;-63
2023/05/01 14:21:21;;;;;;;3.10;2.77;;;;;;;;;;5073576;28;20947;-64
2023/05/01 14:23:49;;;;;;;5.53;4.10;;;;;;;;;;5073764;28;20563;-63
2023/05/01 14:26:18;;;;;;;4.40;3.00;;;;;;;;;;5073680;28;20494;-64
2023/05/01 14:28:46;;;;;;;4.60;3.00;;;;;;;;;;5073533;28;20457;-64
2023/05/01 14:31:16;;;;;;;4.23;3.40;;;;;;;;;;5073667;28;20448;-64
2023/05/01 14:33:43;;;;;;;5.90;3.73;;;;;;;;;;5073545;28;20815;-64
2023/05/01 14:36:13;;;;;;;5.03;4.00;;;;;;;;;;5073337;28;20490;-64
2023/05/01 14:38:40;;;;;;;3.13;2.93;;;;;;;;;;5073377;28;20470;-64
2023/05/01 14:41:12;;;;;;;3.60;3.30;;;;;;;;;;5073233;28;20463;-64
2023/05/01 14:43:41;;;;;;;3.40;3.13;;;;;;;;;;5073277;28;20479;-64